Time;durP1;ratioP1;P1;durP2;ratioP2;P2;SDS_P1;SDS_P2;PMS_P1;PMS_P2;Temp;Humidity;BMP_temperature;BMP_pressure;BME280_temperature;BME280_humidity;BME280_pressure;Samples;Min_cycle;Max_cycle;Signal;HPM_P1;HPM_P2
2022/03/03 00:00:10;;;;;;;29.77;18.47;;;6.60;62.70;;;;;;5021897;28;20253;-66
2022/03/03 00:02:41;;;;;;;28.53;19.13;;;6.60;62.20;;;;;;5026377;28;20203;-66
2022/03/03 00:05:09;;;;;;;31.90;19.13;;;6.60;62.00;;;;;;5029824;28;20657;-66
2022/03/03 00:07:37;;;;;;;28.33;19.00;;;6.60;62.00;;;;;;5020828;28;20622;-66
2022/03/03 00:10:05;;;;;;;36.63;20.70;;;6.60;62.40;;;;;;5019096;28;20218;-66
2022/03/03 00:12:33;;;;;;;30.93;20.70;;;6.60;62.60;;;;;;5008858;28;20202;-66
2022/03/03 00:15:00;;;;;;;37.17;24.63;;;6.60;62.30;;;;;;5024491;28;20215;-66
2022/03/03 00:17:28;;;;;;;39.13;25.07;;;6.60;62.00;;;;;;5021759;28;20251;-66
2022/03/03 00:19:55;;;;;;;43.43;24.80;;;6.60;61.50;;;;;;5019381;28;20202;-66
2022/03/03 00:22:22;;;;;;;40.27;23.83;;;6.60;61.10;;;;;;5027367;28;20214;-66
2022/03/03 00:24:49;;;;;;;38.00;23.17;;;6.70;60.70;;;;;;5027929;28;20260;-66
2022/03/03 00:27:16;;;;;;;35.77;22.63;;;6.70;60.40;;;;;;5001225;28;20210;-66
2022/03/03 00:29:43;;;;;;;44.20;25.33;;;6.70;60.40;;;;;;5030009;28;20238;-66
2022/03/03 00:32:10;;;;;;;36.80;24.73;;;6.70;60.30;;;;;;5018861;28;20227;-66
2022/03/03 00:34:37;;;;;;;39.33;24.63;;;6.70;59.80;;;;;;5023331;28;20211;-66
2022/03/03 00:37:05;;;;;;;36.57;23.40;;;6.70;59.80;;;;;;5027470;28;20215;-66
2022/03/03 00:39:32;;;;;;;44.33;24.50;;;6.70;59.80;;;;;;5021239;28;20290;-66
2022/03/03 00:41:59;;;;;;;37.53;22.07;;;6.70;60.10;;;;;;5001580;28;20206;-66
2022/03/03 00:44:26;;;;;;;35.07;22.03;;;6.70;60.20;;;;;;5021194;28;20207;-66
2022/03/03 00:46:53;;;;;;;38.47;24.23;;;6.70;60.30;;;;;;5026749;28;20695;-66
2022/03/03 00:49:21;;;;;;;36.00;22.43;;;6.70;60.70;;;;;;5006231;28;20207;-66
2022/03/03 00:51:48;;;;;;;36.00;23.53;;;6.70;61.00;;;;;;5018592;28;20207;-66
2022/03/03 00:54:15;;;;;;;35.57;22.30;;;6.70;61.20;;;;;;5015903;28;20203;-66
2022/03/03 00:56:42;;;;;;;37.50;24.30;;;6.70;61.00;;;;;;5008423;28;20218;-66
2022/03/03 00:59:10;;;;;;;40.20;22.80;;;6.70;60.50;;;;;;5009416;28;20679;-66
2022/03/03 01:01:37;;;;;;;43.87;24.13;;;6.70;60.40;;;;;;5019470;28;20214;-66
2022/03/03 01:04:05;;;;;;;41.07;23.63;;;6.70;60.20;;;;;;5017288;28;20599;-66
2022/03/03 01:06:32;;;;;;;43.07;24.37;;;6.60;59.70;;;;;;5020574;28;20218;-66
2022/03/03 01:08:59;;;;;;;39.67;23.27;;;6.60;59.70;;;;;;5011582;28;20206;-66
2022/03/03 01:11:26;;;;;;;42.17;24.70;;;6.60;59.10;;;;;;5022554;28;20206;-66
2022/03/03 01:13:53;;;;;;;46.77;24.87;;;6.50;58.80;;;;;;5018440;28;20280;-66
2022/03/03 01:16:20;;;;;;;37.90;24.50;;;6.40;59.20;;;;;;5018146;28;20209;-66
2022/03/03 01:18:47;;;;;;;43.17;24.47;;;6.40;60.00;;;;;;5029703;28;20295;-66
2022/03/03 01:21:14;;;;;;;34.57;24.43;;;6.40;60.70;;;;;;5022800;28;20223;-66
2022/03/03 01:23:41;;;;;;;40.17;24.10;;;6.40;61.40;;;;;;5027656;28;20222;-66
2022/03/03 01:26:08;;;;;;;43.30;24.87;;;6.40;62.10;;;;;;5021111;28;20238;-66
2022/03/03 01:28:35;;;;;;;38.27;22.80;;;6.40;62.10;;;;;;5020064;28;20644;-66
2022/03/03 01:31:02;;;;;;;42.13;23.97;;;6.30;62.00;;;;;;5006556;28;20206;-66
2022/03/03 01:33:29;;;;;;;34.97;23.23;;;6.30;62.00;;;;;;5024637;28;20217;-66
2022/03/03 01:35:56;;;;;;;37.40;23.53;;;6.30;62.20;;;;;;5017951;28;20207;-66
2022/03/03 01:38:23;;;;;;;43.03;25.00;;;6.30;62.30;;;;;;5017966;28;21033;-66
2022/03/03 01:40:50;;;;;;;37.40;23.43;;;6.30;62.30;;;;;;5005650;28;20647;-66
2022/03/03 01:43:17;;;;;;;41.30;25.40;;;6.30;62.50;;;;;;5024327;28;20214;-66
2022/03/03 01:45:45;;;;;;;42.87;25.17;;;6.30;62.30;;;;;;5018527;28;20230;-66
2022/03/03 01:48:12;;;;;;;43.77;24.80;;;6.30;61.80;;;;;;5016811;28;20216;-66
2022/03/03 01:50:39;;;;;;;37.93;23.03;;;6.30;61.60;;;;;;5031576;28;20210;-66
2022/03/03 01:53:06;;;;;;;38.73;23.20;;;6.30;61.30;;;;;;5024232;28;20206;-66
2022/03/03 01:55:33;;;;;;;39.63;22.57;;;6.30;61.30;;;;;;5028377;28;20542;-66
2022/03/03 01:58:03;;;;;;;36.00;22.83;;;6.30;61.10;;;;;;5017101;28;20210;-66
2022/03/03 02:00:30;;;;;;;34.10;23.00;;;6.30;61.20;;;;;;5016613;28;20668;-66
2022/03/03 02:03:00;;;;;;;37.63;22.83;;;6.30;61.40;;;;;;5021238;28;20211;-66
2022/03/03 02:05:29;;;;;;;41.37;22.53;;;6.30;61.50;;;;;;5006197;28;20233;-66
2022/03/03 02:07:57;;;;;;;45.90;21.53;;;6.30;61.60;;;;;;5020251;28;20202;-66
2022/03/03 02:10:24;;;;;;;33.07;21.70;;;6.30;61.60;;;;;;4995892;28;20711;-66
2022/03/03 02:12:51;;;;;;;36.37;22.13;;;6.30;60.90;;;;;;5022883;28;20221;-66
2022/03/03 02:15:20;;;;;;;37.67;23.50;;;6.40;60.70;;;;;;5025128;28;20527;-66
2022/03/03 02:17:48;;;;;;;31.63;21.20;;;6.30;60.60;;;;;;5021314;28;20206;-66
2022/03/03 02:20:20;;;;;;;38.87;21.23;;;6.30;61.10;;;;;;5026932;28;20206;-66
2022/03/03 02:22:47;;;;;;;36.07;22.50;;;6.30;61.30;;;;;;4998051;28;20660;-66
2022/03/03 02:25:14;;;;;;;36.10;22.20;;;6.30;61.50;;;;;;5022097;28;20215;-66
2022/03/03 02:27:42;;;;;;;32.60;21.20;;;6.30;61.60;;;;;;5026777;28;20624;-66
2022/03/03 02:30:10;;;;;;;34.43;22.27;;;6.40;61.70;;;;;;5002943;28;20198;-66
2022/03/03 02:32:38;;;;;;;32.10;21.03;;;6.40;61.70;;;;;;4996938;28;20266;-66
2022/03/03 02:35:05;;;;;;;35.03;20.73;;;6.40;61.90;;;;;;5018090;28;20207;-66
2022/03/03 02:37:42;;;;;;;35.93;20.83;;;6.30;61.90;;;;;;5025712;28;20210;-66
2022/03/03 02:40:21;;;;;;;35.07;20.43;;;6.30;62.20;;;;;;5020086;28;20208;-66
2022/03/03 02:42:49;;;;;;;32.67;20.83;;;6.30;62.20;;;;;;5016085;28;20231;-66
2022/03/03 02:45:17;;;;;;;31.00;19.03;;;6.30;62.10;;;;;;5028587;28;20207;-66
2022/03/03 02:47:45;;;;;;;32.00;21.67;;;6.30;62.00;;;;;;5026685;28;20210;-66
2022/03/03 02:50:15;;;;;;;29.73;20.43;;;6.30;61.80;;;;;;5027179;28;20676;-66
2022/03/03 02:52:42;;;;;;;35.07;20.10;;;6.30;61.90;;;;;;5024783;28;20217;-66
2022/03/03 02:55:10;;;;;;;34.73;20.13;;;6.30;62.00;;;;;;5018703;28;20224;-66
2022/03/03 02:57:55;;;;;;;34.77;20.83;;;6.30;61.90;;;;;;5007438;28;20423;-66
2022/03/03 03:00:35;;;;;;;33.63;19.90;;;6.30;61.30;;;;;;5028228;28;20252;-66
2022/03/03 03:03:02;;;;;;;33.30;20.43;;;6.30;61.00;;;;;;5021276;28;20210;-66
2022/03/03 03:05:30;;;;;;;29.70;19.80;;;6.40;61.00;;;;;;5000233;28;20263;-66
2022/03/03 03:07:57;;;;;;;33.43;20.63;;;6.30;60.90;;;;;;5028658;28;20640;-66
2022/03/03 03:10:24;;;;;;;29.83;19.13;;;6.30;60.90;;;;;;5007032;28;20210;-66
2022/03/03 03:12:51;;;;;;;34.77;20.70;;;6.30;61.00;;;;;;5001297;28;20552;-66
2022/03/03 03:15:18;;;;;;;30.50;18.90;;;6.30;61.00;;;;;;5018495;28;20241;-66
2022/03/03 03:17:45;;;;;;;31.87;20.33;;;6.20;61.00;;;;;;5017845;28;20285;-66
2022/03/03 03:20:13;;;;;;;34.80;20.70;;;6.20;60.80;;;;;;5028586;28;20215;-66
2022/03/03 03:22:40;;;;;;;30.70;20.73;;;6.30;60.80;;;;;;5034619;28;20221;-66
2022/03/03 03:25:12;;;;;;;34.17;20.40;;;6.30;61.00;;;;;;5007662;28;20284;-66
2022/03/03 03:27:41;;;;;;;32.37;21.07;;;6.20;61.30;;;;;;5023544;28;20293;-66
2022/03/03 03:30:11;;;;;;;31.20;20.53;;;6.20;62.00;;;;;;5020476;28;20204;-66
2022/03/03 03:32:38;;;;;;;34.67;21.27;;;6.20;62.20;;;;;;5031671;28;20601;-66
2022/03/03 03:35:06;;;;;;;28.77;20.00;;;6.20;62.30;;;;;;5024106;28;20307;-66
2022/03/03 03:37:33;;;;;;;44.53;21.80;;;6.20;62.50;;;;;;5020010;28;20540;-66
2022/03/03 03:40:00;;;;;;;33.23;20.73;;;6.20;62.70;;;;;;5028574;28;20206;-66
2022/03/03 03:42:27;;;;;;;35.77;21.43;;;6.20;62.70;;;;;;5030907;28;20213;-66
2022/03/03 03:44:54;;;;;;;31.40;20.33;;;6.20;62.90;;;;;;5029940;28;20514;-66
2022/03/03 03:47:21;;;;;;;32.20;20.80;;;6.20;63.00;;;;;;5008397;28;20552;-66
2022/03/03 03:49:48;;;;;;;31.90;20.57;;;6.20;63.10;;;;;;5018860;28;20635;-66
2022/03/03 03:52:15;;;;;;;33.53;21.00;;;6.20;63.10;;;;;;5024147;28;20544;-66
2022/03/03 03:54:42;;;;;;;35.07;21.23;;;6.20;63.30;;;;;;5027543;28;20236;-66
2022/03/03 03:57:09;;;;;;;36.93;21.47;;;6.20;63.40;;;;;;5005437;28;20222;-66
2022/03/03 03:59:36;;;;;;;39.33;21.47;;;6.10;63.40;;;;;;5020484;28;20255;-66
2022/03/03 04:02:03;;;;;;;33.77;21.57;;;6.10;63.10;;;;;;5013854;28;20208;-66
2022/03/03 04:04:30;;;;;;;29.90;20.00;;;6.10;63.00;;;;;;5029171;28;20198;-66
2022/03/03 04:06:58;;;;;;;37.73;21.13;;;6.10;62.80;;;;;;5025653;28;20717;-66
2022/03/03 04:09:25;;;;;;;32.07;20.20;;;6.10;62.80;;;;;;5020671;28;20257;-66
2022/03/03 04:11:52;;;;;;;30.67;20.33;;;6.10;62.90;;;;;;5022656;28;20222;-66
2022/03/03 04:14:19;;;;;;;31.93;21.60;;;6.10;63.10;;;;;;5005443;28;20206;-66
2022/03/03 04:16:46;;;;;;;31.00;19.93;;;6.10;63.50;;;;;;5027890;28;20203;-66
2022/03/03 04:19:14;;;;;;;31.17;20.13;;;6.10;63.50;;;;;;5027821;28;20222;-66
2022/03/03 04:21:41;;;;;;;31.80;20.40;;;6.10;63.60;;;;;;5018781;28;20273;-66
2022/03/03 04:24:10;;;;;;;33.57;22.03;;;6.10;64.00;;;;;;5020461;28;20212;-66
2022/03/03 04:26:37;;;;;;;31.83;21.00;;;6.10;64.40;;;;;;5016679;28;20235;-66
2022/03/03 04:29:05;;;;;;;33.40;21.53;;;6.00;64.50;;;;;;5022788;28;20207;-66
2022/03/03 04:31:32;;;;;;;30.70;21.83;;;6.00;64.50;;;;;;5018839;28;20218;-66
2022/03/03 04:33:59;;;;;;;31.50;20.20;;;6.10;64.40;;;;;;5020873;28;20301;-66
2022/03/03 04:36:26;;;;;;;34.10;20.57;;;6.00;64.20;;;;;;5014060;28;20217;-66
2022/03/03 04:38:53;;;;;;;31.37;19.77;;;6.00;64.20;;;;;;5029217;28;20516;-66
2022/03/03 04:41:20;;;;;;;34.17;21.57;;;6.00;64.30;;;;;;5031726;28;20219;-66
2022/03/03 04:43:48;;;;;;;35.60;20.17;;;6.00;64.30;;;;;;5025104;28;20211;-66
2022/03/03 04:46:16;;;;;;;37.07;20.57;;;6.00;64.20;;;;;;5004076;28;20252;-66
2022/03/03 04:48:43;;;;;;;35.40;22.33;;;6.00;64.00;;;;;;5024801;28;20217;-66
2022/03/03 04:51:10;;;;;;;31.93;21.07;;;5.90;63.90;;;;;;5025389;28;20217;-66
2022/03/03 04:53:37;;;;;;;34.50;20.73;;;5.90;63.80;;;;;;5020341;28;20579;-66
2022/03/03 04:56:04;;;;;;;32.67;20.70;;;5.90;63.80;;;;;;5019458;28;20211;-66
2022/03/03 04:58:31;;;;;;;34.30;20.37;;;5.90;63.80;;;;;;5023974;28;20608;-66
2022/03/03 05:00:58;;;;;;;28.83;20.47;;;5.90;63.80;;;;;;5024812;28;20215;-66
2022/03/03 05:03:26;;;;;;;30.63;20.47;;;5.80;63.90;;;;;;5022134;28;20272;-66
2022/03/03 05:05:52;;;;;;;32.87;20.20;;;5.80;64.00;;;;;;5021860;28;20206;-66
2022/03/03 05:08:19;;;;;;;32.03;19.60;;;5.80;64.20;;;;;;5023068;28;20207;-66
2022/03/03 05:10:46;;;;;;;39.40;21.13;;;5.80;64.20;;;;;;5026394;28;20222;-66
2022/03/03 05:13:14;;;;;;;33.13;19.80;;;5.70;64.20;;;;;;5028261;28;20198;-66
2022/03/03 05:15:41;;;;;;;30.57;20.07;;;5.70;64.30;;;;;;5017149;28;20629;-66
2022/03/03 05:18:08;;;;;;;34.30;20.27;;;5.70;64.50;;;;;;5020281;28;20222;-66
2022/03/03 05:20:35;;;;;;;36.87;21.93;;;5.60;64.40;;;;;;5021743;28;20293;-66
2022/03/03 05:23:02;;;;;;;33.40;20.53;;;5.60;64.50;;;;;;5017355;28;20640;-66
2022/03/03 05:25:29;;;;;;;37.20;20.03;;;5.60;64.60;;;;;;5020229;28;20211;-66
2022/03/03 05:27:59;;;;;;;31.43;19.53;;;5.50;64.50;;;;;;5017377;28;20237;-66
2022/03/03 05:30:26;;;;;;;34.47;19.40;;;5.50;64.60;;;;;;5025255;28;20207;-66
2022/03/03 05:32:53;;;;;;;31.97;20.90;;;5.40;64.60;;;;;;5027803;28;20206;-65
2022/03/03 05:35:20;;;;;;;31.43;21.03;;;5.40;64.70;;;;;;5028010;28;20269;-65
2022/03/03 05:37:47;;;;;;;32.20;20.47;;;5.40;64.80;;;;;;5022823;28;20247;-66
2022/03/03 05:40:15;;;;;;;30.03;20.13;;;5.30;64.90;;;;;;5017102;28;20292;-66
2022/03/03 05:42:43;;;;;;;35.10;20.27;;;5.30;65.40;;;;;;5019627;28;20218;-66
2022/03/03 05:45:12;;;;;;;36.33;21.60;;;5.30;65.80;;;;;;5008785;28;20647;-66
2022/03/03 05:47:39;;;;;;;45.77;22.50;;;5.30;66.10;;;;;;5020787;28;20353;-66
2022/03/03 05:50:07;;;;;;;32.07;22.30;;;5.20;66.60;;;;;;5015960;28;20256;-66
2022/03/03 05:52:35;;;;;;;34.97;21.17;;;5.20;66.90;;;;;;5019274;28;20213;-66
2022/03/03 05:55:03;;;;;;;32.67;21.57;;;5.20;67.30;;;;;;5025320;28;20213;-66
2022/03/03 05:57:43;;;;;;;36.90;20.53;;;5.20;67.30;;;;;;5023345;28;20218;-66
2022/03/03 06:00:13;;;;;;;31.57;20.77;;;5.20;67.40;;;;;;5013373;28;20243;-66
2022/03/03 06:02:49;;;;;;;30.97;19.80;;;5.20;68.00;;;;;;5020751;28;20215;-66
2022/03/03 06:05:27;;;;;;;34.43;20.10;;;5.20;67.30;;;;;;5022303;28;20211;-66
2022/03/03 06:08:06;;;;;;;36.00;22.03;;;5.20;67.80;;;;;;5024768;28;20233;-66
2022/03/03 06:10:34;;;;;;;30.87;19.33;;;5.20;68.00;;;;;;5021249;28;20596;-66
2022/03/03 06:13:12;;;;;;;29.53;20.80;;;5.20;68.20;;;;;;5014535;28;20218;-65
2022/03/03 06:15:42;;;;;;;30.43;21.37;;;5.10;68.20;;;;;;5014754;28;20202;-65
2022/03/03 06:18:11;;;;;;;35.73;21.83;;;5.00;68.60;;;;;;5020952;28;20205;-66
2022/03/03 06:20:40;;;;;;;32.83;20.63;;;5.00;68.80;;;;;;5020553;28;20224;-66
2022/03/03 06:23:08;;;;;;;34.27;22.67;;;5.00;69.00;;;;;;5011789;28;20215;-66
2022/03/03 06:25:36;;;;;;;35.00;22.13;;;5.00;69.10;;;;;;5023426;28;20539;-66
2022/03/03 06:28:04;;;;;;;37.77;22.73;;;5.00;69.50;;;;;;5026610;28;20229;-66
2022/03/03 06:30:32;;;;;;;36.33;22.67;;;5.00;69.40;;;;;;5024432;28;20225;-66
2022/03/03 06:32:59;;;;;;;29.93;20.30;;;5.00;69.60;;;;;;5010919;28;20209;-66
2022/03/03 06:35:26;;;;;;;34.57;22.30;;;5.00;69.60;;;;;;5017247;28;20819;-66
2022/03/03 06:37:53;;;;;;;28.93;20.73;;;5.10;70.00;;;;;;5020987;28;20205;-65
2022/03/03 06:40:20;;;;;;;30.83;21.17;;;5.10;70.60;;;;;;5024933;28;20220;-66
2022/03/03 06:42:48;;;;;;;33.57;22.97;;;5.20;71.00;;;;;;5019892;28;20207;-66
2022/03/03 06:45:17;;;;;;;36.97;23.10;;;5.20;71.00;;;;;;5015862;28;20624;-66
2022/03/03 06:47:46;;;;;;;41.40;25.37;;;5.30;70.90;;;;;;5016606;28;20214;-66
2022/03/03 06:50:13;;;;;;;37.93;24.87;;;5.30;70.80;;;;;;5026943;28;20211;-66
2022/03/03 06:52:41;;;;;;;39.73;23.97;;;5.30;70.50;;;;;;5020401;28;20268;-66
2022/03/03 06:55:10;;;;;;;36.23;23.27;;;5.40;70.60;;;;;;5009961;28;20194;-65
2022/03/03 06:57:38;;;;;;;35.47;23.33;;;5.50;70.60;;;;;;5025695;28;20210;-66
2022/03/03 07:00:06;;;;;;;35.43;23.10;;;5.50;70.40;;;;;;5005613;28;20252;-66
2022/03/03 07:02:34;;;;;;;40.73;26.13;;;5.60;70.30;;;;;;5025023;28;20243;-66
2022/03/03 07:05:02;;;;;;;37.10;24.97;;;5.70;70.20;;;;;;5021642;28;20211;-66
2022/03/03 07:07:31;;;;;;;41.03;24.43;;;5.80;70.10;;;;;;5015853;28;20651;-66
2022/03/03 07:09:58;;;;;;;32.27;22.47;;;5.90;70.20;;;;;;5017255;28;20272;-66
2022/03/03 07:12:28;;;;;;;36.70;24.47;;;5.90;70.40;;;;;;5005704;28;20237;-65
2022/03/03 07:14:56;;;;;;;34.63;24.00;;;6.00;70.00;;;;;;5021195;28;20245;-66
2022/03/03 07:17:45;;;;;;;34.30;23.53;;;6.10;70.00;;;;;;5016367;28;20215;-66
2022/03/03 07:20:26;;;;;;;36.50;24.53;;;6.20;70.60;;;;;;5009057;28;20219;-66
2022/03/03 07:22:59;;;;;;;41.87;25.73;;;6.30;71.00;;;;;;5026427;28;20206;-66
2022/03/03 07:25:37;;;;;;;42.67;24.93;;;6.50;70.90;;;;;;5023858;28;20211;-66
2022/03/03 07:28:07;;;;;;;34.70;24.40;;;6.60;70.70;;;;;;5022499;28;20238;-66
2022/03/03 07:30:40;;;;;;;44.00;25.10;;;6.70;70.40;;;;;;5016056;28;20222;-66
2022/03/03 07:33:23;;;;;;;33.87;23.77;;;6.80;70.40;;;;;;5019553;28;20538;-66
2022/03/03 07:35:55;;;;;;;34.57;23.73;;;6.90;70.90;;;;;;5016132;28;20221;-66
2022/03/03 07:38:26;;;;;;;35.17;23.87;;;7.00;70.20;;;;;;5016186;28;20217;-66
2022/03/03 07:40:53;;;;;;;34.57;24.67;;;7.10;70.00;;;;;;5016526;28;20203;-66
2022/03/03 07:43:20;;;;;;;37.37;24.27;;;7.30;70.00;;;;;;5018735;28;20207;-66
2022/03/03 07:45:47;;;;;;;31.87;21.33;;;7.40;69.50;;;;;;5019041;28;20273;-66
2022/03/03 07:48:14;;;;;;;30.90;22.03;;;7.60;68.30;;;;;;5018759;28;20223;-66
2022/03/03 07:50:43;;;;;;;43.33;21.90;;;7.70;67.20;;;;;;5016063;28;20210;-66
2022/03/03 07:53:11;;;;;;;31.97;20.73;;;7.80;66.60;;;;;;5015414;28;20230;-66
2022/03/03 07:55:51;;;;;;;37.53;21.83;;;7.90;66.00;;;;;;5023946;28;20279;-66
2022/03/03 07:58:21;;;;;;;35.13;20.30;;;8.00;64.80;;;;;;5025747;28;20747;-66
2022/03/03 08:00:53;;;;;;;34.33;20.93;;;8.10;64.40;;;;;;5021205;28;20219;-66
2022/03/03 08:03:22;;;;;;;36.57;21.80;;;8.20;63.80;;;;;;5015471;28;20207;-66
2022/03/03 08:05:51;;;;;;;30.13;19.57;;;8.30;63.70;;;;;;5022983;28;20222;-66
2022/03/03 08:08:24;;;;;;;29.70;20.60;;;8.40;63.60;;;;;;5009510;28;20240;-66
2022/03/03 08:11:01;;;;;;;39.37;20.93;;;8.50;63.10;;;;;;5003535;28;20214;-66
2022/03/03 08:13:30;;;;;;;29.83;20.93;;;8.60;62.10;;;;;;5016786;28;20643;-66
2022/03/03 08:15:57;;;;;;;32.47;21.67;;;8.70;61.90;;;;;;5012342;28;20204;-66
2022/03/03 08:18:31;;;;;;;30.20;20.33;;;8.80;61.70;;;;;;5028870;28;20222;-66
2022/03/03 08:21:01;;;;;;;40.33;21.87;;;8.90;61.90;;;;;;5026510;28;20208;-66
2022/03/03 08:23:29;;;;;;;35.07;20.87;;;9.00;61.40;;;;;;5030201;28;20222;-66
2022/03/03 08:25:57;;;;;;;33.77;20.83;;;9.00;60.70;;;;;;5022532;28;20590;-66
2022/03/03 08:28:24;;;;;;;31.97;20.53;;;9.10;60.70;;;;;;5023752;28;20235;-66
2022/03/03 08:31:04;;;;;;;31.03;20.50;;;9.20;60.50;;;;;;5026570;28;20291;-66
2022/03/03 08:33:56;;;;;;;30.37;20.47;;;9.30;60.00;;;;;;4999785;28;20692;-66
2022/03/03 08:36:34;;;;;;;44.13;22.20;;;9.40;59.50;;;;;;5018540;28;20212;-66
2022/03/03 08:39:07;;;;;;;29.13;20.87;;;9.50;57.80;;;;;;5005874;28;20203;-66
2022/03/03 08:41:38;;;;;;;35.00;22.53;;;9.70;57.40;;;;;;5024798;28;20213;-66
2022/03/03 08:44:09;;;;;;;36.53;22.87;;;9.80;57.10;;;;;;5017720;28;20209;-66
2022/03/03 08:46:39;;;;;;;41.53;23.07;;;9.80;57.00;;;;;;5020166;28;20212;-66
2022/03/03 08:49:10;;;;;;;30.10;22.00;;;9.90;57.30;;;;;;5030834;28;20225;-66
2022/03/03 08:51:38;;;;;;;34.27;22.37;;;10.00;57.00;;;;;;5025500;28;20219;-66
2022/03/03 08:54:06;;;;;;;40.73;22.80;;;10.20;57.10;;;;;;5029372;28;20694;-66
2022/03/03 08:56:33;;;;;;;36.07;23.00;;;10.30;56.20;;;;;;5020995;28;20649;-66
2022/03/03 08:59:01;;;;;;;37.03;24.00;;;10.40;56.70;;;;;;5019445;28;20236;-66
2022/03/03 09:01:29;;;;;;;39.53;22.60;;;10.60;57.10;;;;;;5023281;28;20218;-66
2022/03/03 09:03:58;;;;;;;36.20;23.30;;;10.90;56.20;;;;;;5018617;28;20230;-66
2022/03/03 09:06:28;;;;;;;29.93;20.50;;;11.30;55.10;;;;;;5018661;28;20216;-66
2022/03/03 09:08:55;;;;;;;36.30;22.63;;;11.60;53.40;;;;;;5017296;28;20850;-66
2022/03/03 09:11:22;;;;;;;33.33;22.60;;;11.90;52.50;;;;;;5019175;28;20210;-66
2022/03/03 09:13:49;;;;;;;32.53;22.43;;;12.10;51.40;;;;;;5009709;28;20217;-66
2022/03/03 09:16:17;;;;;;;34.93;22.27;;;12.10;50.40;;;;;;5022301;28;20209;-66
2022/03/03 09:18:45;;;;;;;32.70;21.97;;;12.00;49.70;;;;;;5027467;28;20210;-66
2022/03/03 09:21:12;;;;;;;33.13;20.80;;;11.90;49.50;;;;;;5017323;28;20648;-66
2022/03/03 09:23:39;;;;;;;32.63;21.20;;;11.80;49.10;;;;;;5022986;28;20203;-66
2022/03/03 09:26:06;;;;;;;28.03;19.60;;;11.80;49.40;;;;;;5027599;28;20213;-66
2022/03/03 09:28:34;;;;;;;33.53;20.70;;;11.70;49.90;;;;;;5018287;28;20224;-66
2022/03/03 09:31:01;;;;;;;33.63;20.90;;;11.80;49.30;;;;;;5018840;28;20701;-66
2022/03/03 09:33:28;;;;;;;32.37;20.50;;;11.80;49.40;;;;;;5018221;28;20272;-66
2022/03/03 09:35:55;;;;;;;31.43;21.47;;;11.80;48.50;;;;;;5025764;28;20511;-66
2022/03/03 09:38:22;;;;;;;30.40;21.43;;;11.70;49.00;;;;;;5004635;28;20215;-66
2022/03/03 09:40:49;;;;;;;30.80;21.43;;;11.70;49.60;;;;;;4997144;28;20232;-66
2022/03/03 09:43:17;;;;;;;34.83;22.43;;;11.60;49.60;;;;;;5026187;28;20204;-66
2022/03/03 09:45:44;;;;;;;30.03;21.67;;;11.60;50.00;;;;;;5007788;28;20309;-66
2022/03/03 09:48:16;;;;;;;29.70;21.60;;;11.60;49.80;;;;;;5026200;28;20263;-66
2022/03/03 09:50:43;;;;;;;36.30;23.23;;;11.70;49.70;;;;;;5028959;28;20210;-66
2022/03/03 09:53:13;;;;;;;34.57;23.17;;;11.70;50.00;;;;;;5016694;28;20214;-66
2022/03/03 09:55:42;;;;;;;32.50;22.13;;;11.80;49.90;;;;;;5020591;28;20220;-66
2022/03/03 09:58:09;;;;;;;32.67;22.43;;;11.80;50.00;;;;;;5025814;28;20218;-66
2022/03/03 10:00:40;;;;;;;34.47;22.77;;;11.80;49.50;;;;;;5020876;28;20243;-66
2022/03/03 10:03:10;;;;;;;34.93;22.57;;;11.70;49.90;;;;;;5016901;28;20207;-66
2022/03/03 10:05:52;;;;;;;32.07;22.23;;;11.80;50.30;;;;;;5018540;28;20209;-66
2022/03/03 10:08:22;;;;;;;38.80;23.20;;;11.90;50.50;;;;;;5024766;28;20669;-66
2022/03/03 10:10:54;;;;;;;35.77;22.30;;;12.00;50.10;;;;;;5019728;28;20215;-66
2022/03/03 10:13:21;;;;;;;32.03;21.63;;;12.10;50.10;;;;;;5027161;28;20208;-67
2022/03/03 10:15:57;;;;;;;31.43;22.37;;;12.20;49.20;;;;;;5017189;28;20577;-67
2022/03/03 10:18:25;;;;;;;33.90;22.67;;;12.20;49.20;;;;;;5019493;28;20209;-67
2022/03/03 10:21:00;;;;;;;30.80;21.10;;;12.30;49.40;;;;;;5025699;28;20214;-67
2022/03/03 10:23:32;;;;;;;29.50;20.33;;;12.40;49.60;;;;;;5018777;28;20332;-67
2022/03/03 10:26:01;;;;;;;35.33;21.93;;;12.50;49.60;;;;;;5015196;28;20216;-66
2022/03/03 10:28:36;;;;;;;31.40;21.97;;;12.60;49.20;;;;;;5019154;28;20668;-66
2022/03/03 10:31:07;;;;;;;32.70;21.60;;;12.70;48.90;;;;;;5023233;28;20205;-66
2022/03/03 10:33:36;;;;;;;32.63;23.47;;;12.80;48.40;;;;;;5020805;28;20211;-66
2022/03/03 10:36:15;;;;;;;38.77;23.43;;;12.90;48.20;;;;;;5014067;28;20199;-66
2022/03/03 10:38:55;;;;;;;32.30;22.20;;;13.00;48.30;;;;;;5022524;28;20229;-66
2022/03/03 10:41:39;;;;;;;32.77;21.50;;;13.10;48.40;;;;;;5023742;28;20202;-66
2022/03/03 10:44:20;;;;;;;33.80;21.23;;;13.30;48.00;;;;;;5011716;28;20510;-66
2022/03/03 10:47:12;;;;;;;30.53;21.17;;;13.40;47.10;;;;;;5023032;28;20217;-66
2022/03/03 10:49:42;;;;;;;33.80;22.87;;;13.60;45.70;;;;;;5017513;28;20224;-66
2022/03/03 10:52:17;;;;;;;31.93;20.43;;;13.70;46.50;;;;;;5021064;28;20534;-66
2022/03/03 10:55:12;;;;;;;31.93;20.40;;;13.80;46.90;;;;;;5020613;28;20295;-66
2022/03/03 10:57:44;;;;;;;36.77;20.50;;;14.00;46.10;;;;;;5015127;28;20210;-66
2022/03/03 11:00:17;;;;;;;33.80;21.37;;;14.20;45.30;;;;;;5016478;28;20254;-66
2022/03/03 11:02:47;;;;;;;34.90;21.53;;;14.30;44.90;;;;;;5024092;28;20478;-66
2022/03/03 11:05:16;;;;;;;26.77;19.77;;;14.50;44.40;;;;;;5003587;28;20245;-67
2022/03/03 11:07:45;;;;;;;23.10;18.60;;;14.70;44.00;;;;;;5016053;28;20208;-67
2022/03/03 11:10:14;;;;;;;31.53;19.87;;;14.80;41.40;;;;;;5004046;28;20209;-67
2022/03/03 11:12:45;;;;;;;32.20;20.37;;;14.90;41.40;;;;;;5018941;28;20209;-67
2022/03/03 11:15:14;;;;;;;27.37;19.53;;;15.00;42.00;;;;;;5023964;28;20206;-66
2022/03/03 11:17:42;;;;;;;27.50;20.60;;;15.10;41.80;;;;;;5024199;28;20561;-66
2022/03/03 11:20:12;;;;;;;24.27;19.30;;;15.20;42.20;;;;;;5017325;28;20207;-66
2022/03/03 11:22:40;;;;;;;26.17;19.03;;;15.40;42.00;;;;;;5016410;28;20207;-66
2022/03/03 11:25:10;;;;;;;30.27;19.17;;;15.40;40.70;;;;;;5019832;28;20198;-66
2022/03/03 11:27:40;;;;;;;21.97;16.53;;;15.60;39.60;;;;;;5021962;28;20192;-66
2022/03/03 11:30:31;;;;;;;28.77;19.50;;;15.60;38.90;;;;;;5017460;28;20211;-66
2022/03/03 11:33:22;;;;;;;26.73;18.40;;;15.80;37.80;;;;;;5009853;28;20242;-66
2022/03/03 11:36:00;;;;;;;25.40;18.50;;;15.90;38.60;;;;;;5022856;28;20711;-66
2022/03/03 11:38:45;;;;;;;27.67;20.03;;;16.00;38.00;;;;;;5027197;28;20988;-66
2022/03/03 11:41:13;;;;;;;28.17;19.83;;;16.00;36.40;;;;;;5017434;28;20210;-66
2022/03/03 11:43:58;;;;;;;29.63;19.73;;;16.00;37.50;;;;;;5019896;28;20206;-66
2022/03/03 11:46:51;;;;;;;31.67;20.53;;;16.00;37.20;;;;;;5025765;28;20258;-66
2022/03/03 11:49:23;;;;;;;28.80;20.17;;;16.00;37.30;;;;;;5023294;28;20572;-66
2022/03/03 11:51:54;;;;;;;27.37;20.77;;;16.10;37.20;;;;;;5022048;28;20214;-66
2022/03/03 11:54:31;;;;;;;28.07;20.70;;;16.10;35.80;;;;;;5018365;28;20311;-66
2022/03/03 11:57:04;;;;;;;32.27;21.17;;;16.10;37.10;;;;;;5026452;28;20646;-66
2022/03/03 11:59:35;;;;;;;31.43;21.40;;;16.20;37.20;;;;;;5017674;28;20239;-66
2022/03/03 12:02:02;;;;;;;33.77;22.13;;;16.30;37.20;;;;;;5017730;28;20571;-66
2022/03/03 12:04:30;;;;;;;36.57;22.43;;;16.30;37.00;;;;;;5018628;28;20211;-66
2022/03/03 12:06:57;;;;;;;31.57;22.67;;;16.40;36.90;;;;;;5021057;28;20222;-66
2022/03/03 12:09:34;;;;;;;31.57;22.60;;;16.40;35.80;;;;;;5026913;28;20243;-66
2022/03/03 12:12:17;;;;;;;34.70;23.47;;;16.40;35.70;;;;;;5019935;28;20230;-67
2022/03/03 12:14:50;;;;;;;31.50;21.73;;;16.30;36.00;;;;;;5021494;28;20283;-67
2022/03/03 12:17:38;;;;;;;29.17;22.07;;;16.20;36.80;;;;;;5001025;28;20219;-67
2022/03/03 12:20:24;;;;;;;30.60;22.00;;;16.20;36.90;;;;;;5023075;28;20281;-67
2022/03/03 12:23:18;;;;;;;32.40;22.37;;;16.20;37.00;;;;;;5022541;28;20210;-67
2022/03/03 12:25:51;;;;;;;32.30;21.43;;;16.10;34.70;;;;;;5018790;28;20214;-66
2022/03/03 12:28:20;;;;;;;31.40;22.03;;;16.00;35.70;;;;;;5021055;28;20233;-66
2022/03/03 12:30:49;;;;;;;29.10;22.13;;;16.00;36.50;;;;;;5025337;28;20547;-66
2022/03/03 12:33:28;;;;;;;32.80;22.03;;;16.00;36.20;;;;;;5029147;28;20202;-66
2022/03/03 12:36:05;;;;;;;28.83;21.77;;;16.00;35.90;;;;;;5028224;28;20206;-66
2022/03/03 12:38:36;;;;;;;30.13;22.13;;;16.10;36.40;;;;;;5014744;28;20215;-66
2022/03/03 12:41:04;;;;;;;33.90;23.97;;;16.10;35.50;;;;;;5020017;28;20203;-66
2022/03/03 12:43:39;;;;;;;34.60;23.40;;;16.20;35.30;;;;;;5027298;28;20624;-66
2022/03/03 12:46:07;;;;;;;29.77;22.53;;;16.20;35.60;;;;;;5020486;28;20202;-66